Louisville International Standiford Field
KSDF : now visible

Airfield :











YOU CAN JOIN US ON...

 
LOGIN :

Register | Disclaimer

   EN    FR    IT 

 









Legend :    VFR   Marginal VFR   IFR   Intensive IFR   Very Intensive IFR
Visi :
Ceiling :
>= 8 km
>= 3000ft
5 to 8 km
1000 to 3000 ft
1500m to 5 km
500 to 1000 ft
800 to 1500m
200 to 500 ft
< 800m
< 200 ft
Symbols :   Thunderstorms  Fog  Heavy snow  Heavy precipitations  Wind > 20 kt






- Airport Elevation : 501 ft
- IATA code : SDF


KSDF - Louisville International Standiford Field

CURRENT METAR :
  • 161156Z 03004KT 10SM OVC006 03/02 A3003 RMK AO2 CIG 005V009 SLP170 60010 70032 T00330017 10033 20028 53015

EXPIRED METARs :
  • 161056Z 03004KT 10SM OVC008 03/02 A3001 RMK AO2 SLP166 T00330017
  • 160956Z 05003KT 10SM OVC008 03/01 A2999 RMK AO2 DZE20 SLP159 P0000 T00330011

TAF KSDF
Valid from the 16 at 12:00 until the 17 at 18:00 UTC


161120Z 1612/1718 04005KT P6SM OVC008
FM161600 04008KT 4SM -RA BR OVC007
FM161900 03009KT 2SM RA BR OVC004
FM162300 03009KT 4SM -RA BR OVC007
FM170400 35009KT 4SM -RA BR OVC006



MET'MAP, your aeronautical weather chart ! - Copyright ORBIFLY December 2007 - Disclaimer

ORBIFLY MET'MAP TEAM :

Programming & Development : Alexandra Zaïnal
Concept & original design : Baudouin d'Aumeries
Assistance for programming : Marc-Olivier Méhu
Technical & hardware support : Manuel Goepfert

Contact : metmap@orbifly.com




SOURCES & CREDITS :

   NOAA       Earth
Advisory